Time;durP1;ratioP1;P1;durP2;ratioP2;P2;SDS_P1;SDS_P2;PMS_P1;PMS_P2;Temp;Humidity;BMP_temperature;BMP_pressure;BME280_temperature;BME280_humidity;BME280_pressure;Samples;Min_cycle;Max_cycle;Signal;HPM_P1;HPM_P2
2022/04/05 00:01:30;;;;;;;8.60;5.78;;;;;;;13.25;61.45;101441.06;5040923;28;20029;-81
2022/04/05 00:03:56;;;;;;;8.10;5.57;;;;;;;13.21;61.58;101434.72;5031317;28;20503;-81
2022/04/05 00:06:22;;;;;;;6.35;5.10;;;;;;;13.15;61.84;101428.25;5045076;28;20509;-81
2022/04/05 00:08:47;;;;;;;6.22;5.30;;;;;;;13.12;61.63;101423.75;5036552;28;20044;-81
2022/04/05 00:11:13;;;;;;;7.28;5.90;;;;;;;13.16;61.46;101433.56;5046687;28;20040;-81
2022/04/05 00:13:39;;;;;;;9.30;6.43;;;;;;;13.24;61.78;101449.72;5014366;28;20032;-81
2022/04/05 00:16:05;;;;;;;9.35;6.72;;;;;;;13.24;61.76;101452.34;5047189;28;20023;-81
2022/04/05 00:18:30;;;;;;;9.35;7.00;;;;;;;13.22;61.69;101452.25;5048678;28;20025;-81
2022/04/05 00:20:56;;;;;;;10.15;7.15;;;;;;;13.24;61.69;101457.59;5014225;28;20068;-81
2022/04/05 00:23:22;;;;;;;8.38;6.22;;;;;;;13.24;61.69;101450.63;5030553;28;20029;-81
2022/04/05 00:25:48;;;;;;;9.82;6.00;;;;;;;13.15;61.48;101430.88;5030845;28;20079;-81
2022/04/05 00:28:13;;;;;;;8.20;5.93;;;;;;;13.19;61.78;101441.59;5030810;28;20034;-81
2022/04/05 00:30:39;;;;;;;9.27;6.57;;;;;;;13.22;61.72;101447.00;5013809;28;20106;-81
2022/04/05 00:33:05;;;;;;;8.50;6.53;;;;;;;13.19;61.51;101435.47;5031150;28;20029;-81
2022/04/05 00:35:31;;;;;;;7.82;6.05;;;;;;;13.20;61.72;101443.41;5032027;28;20030;-81
2022/04/05 00:37:56;;;;;;;8.57;6.40;;;;;;;13.17;61.65;101442.34;5049050;28;20524;-81
2022/04/05 00:40:22;;;;;;;9.30;5.93;;;;;;;13.16;61.79;101433.56;5037042;28;20059;-81
2022/04/05 00:42:48;;;;;;;8.20;6.30;;;;;;;13.11;61.55;101427.19;5054450;28;20114;-81
2022/04/05 00:45:16;;;;;;;8.05;6.00;;;;;;;13.21;61.55;101436.47;5054168;28;20294;-81
2022/04/05 00:47:47;;;;;;;8.23;6.25;;;;;;;13.11;61.96;101427.19;5040694;28;20038;-81
2022/04/05 00:50:14;;;;;;;8.82;6.43;;;;;;;13.17;61.78;101435.38;5017337;28;20029;-81
2022/04/05 00:52:40;;;;;;;8.55;6.20;;;;;;;13.11;61.82;101418.41;5016888;28;20035;-80
2022/04/05 00:55:05;;;;;;;8.60;6.68;;;;;;;13.20;61.74;101421.53;5034894;28;20033;-81
2022/04/05 00:57:32;;;;;;;7.97;6.07;;;;;;;13.18;61.60;101418.81;5024359;28;20494;-81
2022/04/05 01:00:01;;;;;;;7.72;6.15;;;;;;;13.12;61.64;101407.09;5020293;28;20087;-81
2022/04/05 01:02:28;;;;;;;8.57;6.03;;;;;;;13.16;61.70;101420.44;5029622;28;20513;-81
2022/04/05 01:04:54;;;;;;;7.70;5.93;;;;;;;13.14;61.66;101416.84;5037860;28;20025;-81
2022/04/05 01:07:22;;;;;;;8.55;6.00;;;;;;;13.16;61.66;101412.59;5033876;28;20033;-81
2022/04/05 01:09:53;;;;;;;8.18;5.95;;;;;;;13.10;61.85;101406.09;5025523;28;20040;-81
2022/04/05 01:12:20;;;;;;;9.93;6.35;;;;;;;13.13;61.92;101409.81;5019475;28;20021;-82
2022/04/05 01:14:45;;;;;;;;;;;;;;;13.18;61.73;101416.19;5034661;28;20067;-81
2022/04/05 01:17:11;;;;;;;7.82;5.80;;;;;;;13.14;62.09;101410.69;5043244;28;19951;-80
2022/04/05 01:19:38;;;;;;;7.63;6.13;;;;;;;13.11;61.97;101405.31;5053539;28;20111;-81
2022/04/05 01:22:03;;;;;;;7.85;5.97;;;;;;;13.05;61.98;101395.38;5053565;28;20092;-81
2022/04/05 01:24:29;;;;;;;7.78;5.78;;;;;;;13.08;61.82;101399.88;5041707;28;20117;-81
2022/04/05 01:26:57;;;;;;;8.95;6.10;;;;;;;13.11;61.93;101400.06;5016260;28;20094;-81
2022/04/05 01:29:24;;;;;;;7.95;5.80;;;;;;;13.11;62.22;101400.06;5034829;28;20037;-81
2022/04/05 01:31:55;;;;;;;7.90;5.47;;;;;;;13.07;62.00;101391.13;5036800;28;20030;-81
2022/04/05 01:34:23;;;;;;;7.80;5.75;;;;;;;13.08;62.18;101398.19;5035974;28;20475;-81
2022/04/05 01:36:52;;;;;;;9.02;5.97;;;;;;;12.96;62.24;101372.19;5035429;28;20029;-81
2022/04/05 01:39:19;;;;;;;8.50;6.07;;;;;;;13.11;61.78;101392.19;5052957;28;20033;-81
2022/04/05 01:41:45;;;;;;;7.05;5.55;;;;;;;13.09;61.84;101392.09;5053628;28;20120;-82
2022/04/05 01:44:13;;;;;;;6.78;5.40;;;;;;;13.09;62.20;101388.59;5035265;28;20029;-81
2022/04/05 01:46:39;;;;;;;7.28;5.50;;;;;;;13.08;61.94;101387.69;5053006;28;20889;-81
2022/04/05 01:49:10;;;;;;;7.47;5.32;;;;;;;13.06;62.08;101397.19;5054514;28;20025;-81
2022/04/05 01:51:37;;;;;;;8.65;5.75;;;;;;;13.00;62.08;101375.88;5033317;28;20425;-80
2022/04/05 01:54:05;;;;;;;8.57;5.57;;;;;;;13.01;62.24;101381.19;5015603;28;20479;-81
2022/04/05 01:56:32;;;;;;;6.75;5.28;;;;;;;12.97;62.15;101376.59;5033292;28;20033;-81
2022/04/05 01:58:59;;;;;;;6.75;5.45;;;;;;;13.06;62.17;101385.78;5035531;28;20064;-81
2022/04/05 02:01:25;;;;;;;7.13;5.13;;;;;;;13.00;62.06;101373.25;5052716;28;20078;-81
2022/04/05 02:03:50;;;;;;;6.70;5.30;;;;;;;13.04;62.20;101378.75;5052002;28;20109;-80
2022/04/05 02:06:16;;;;;;;7.30;5.37;;;;;;;13.04;62.35;101384.00;5049487;28;20067;-81
2022/04/05 02:08:41;;;;;;;7.15;5.15;;;;;;;13.06;62.02;101372.69;5025684;28;20438;-81
2022/04/05 02:11:07;;;;;;;6.50;5.38;;;;;;;13.04;62.03;101381.38;5034563;28;20029;-81
2022/04/05 02:13:33;;;;;;;6.13;5.43;;;;;;;12.97;62.03;101358.25;5038398;28;20490;-81
2022/04/05 02:16:03;;;;;;;7.72;5.43;;;;;;;13.00;62.17;101366.28;5052973;28;20366;-81
2022/04/05 02:18:29;;;;;;;8.05;5.78;;;;;;;12.99;62.31;101369.72;5035238;28;20052;-81
2022/04/05 02:20:55;;;;;;;7.63;5.38;;;;;;;12.96;62.41;101355.56;5035120;28;20048;-82
2022/04/05 02:23:21;;;;;;;7.78;5.53;;;;;;;12.99;62.42;101372.34;5052607;28;20021;-81
2022/04/05 02:25:46;;;;;;;7.03;5.50;;;;;;;12.96;62.10;101353.84;5047393;28;20032;-81
2022/04/05 02:28:12;;;;;;;6.25;5.15;;;;;;;12.91;62.21;101341.28;5032921;28;20037;-81
2022/04/05 02:30:39;;;;;;;6.68;5.20;;;;;;;12.99;62.61;101353.09;5015238;28;20029;-81
2022/04/05 02:33:05;;;;;;;6.35;4.97;;;;;;;12.93;62.60;101344.91;5032814;28;20056;-81
2022/04/05 02:35:30;;;;;;;5.75;4.97;;;;;;;12.99;62.23;101361.84;5033795;28;20486;-81
2022/04/05 02:37:59;;;;;;;8.02;5.47;;;;;;;12.96;62.28;101352.94;5046820;28;20030;-79
2022/04/05 02:40:25;;;;;;;6.85;4.90;;;;;;;12.91;62.32;101355.31;5048062;28;20033;-80
2022/04/05 02:42:51;;;;;;;7.55;5.30;;;;;;;12.98;62.27;101359.19;5035753;28;20029;-81
2022/04/05 02:45:17;;;;;;;6.40;5.13;;;;;;;12.96;62.41;101355.56;5033654;28;20049;-81
2022/04/05 02:47:43;;;;;;;6.68;5.25;;;;;;;12.97;62.46;101357.34;5032386;28;20057;-81
2022/04/05 02:50:09;;;;;;;6.30;5.05;;;;;;;12.93;62.53;101351.06;5032408;28;20120;-81
2022/04/05 02:52:35;;;;;;;;;;;;;;;12.99;62.48;101351.38;5032672;28;20108;-81
2022/04/05 02:55:00;;;;;;;7.68;5.50;;;;;;;12.95;62.35;101352.06;5032136;28;20469;-81
2022/04/05 02:57:26;;;;;;;6.95;4.85;;;;;;;12.93;62.28;101347.53;5036337;28;20037;-81
2022/04/05 02:59:52;;;;;;;6.22;5.25;;;;;;;12.84;62.71;101335.72;5020804;28;20082;-80
2022/04/05 03:02:18;;;;;;;7.80;5.25;;;;;;;12.91;62.73;101339.59;5051359;28;20402;-80
2022/04/05 03:04:43;;;;;;;6.07;4.82;;;;;;;12.88;62.44;101335.91;5051954;28;20510;-81
2022/04/05 03:07:09;;;;;;;7.10;4.93;;;;;;;12.93;62.50;101343.19;5041923;28;20609;-81
2022/04/05 03:09:35;;;;;;;6.00;4.75;;;;;;;12.93;62.44;101342.28;5044415;28;20025;-81
2022/04/05 03:12:00;;;;;;;7.15;5.15;;;;;;;12.90;62.20;101339.50;5051673;28;20447;-82
2022/04/05 03:14:27;;;;;;;6.75;5.38;;;;;;;12.88;62.36;101328.03;5051958;28;20025;-80
2022/04/05 03:16:52;;;;;;;5.78;4.75;;;;;;;12.88;62.70;101338.53;5048031;28;20506;-82
2022/04/05 03:19:18;;;;;;;5.80;4.93;;;;;;;12.87;62.32;101329.78;5041102;28;20428;-81
2022/04/05 03:21:44;;;;;;;6.72;5.13;;;;;;;12.89;62.39;101321.97;5039090;28;20391;-82
2022/04/05 03:24:09;;;;;;;7.00;5.53;;;;;;;12.85;62.26;101328.78;5031777;28;20508;-81
2022/04/05 03:26:36;;;;;;;6.95;5.60;;;;;;;12.85;62.55;101328.78;5037678;28;20451;-81
2022/04/05 03:29:02;;;;;;;8.40;5.68;;;;;;;12.87;62.47;101331.47;5049491;28;20165;-81
2022/04/05 03:31:28;;;;;;;8.07;5.15;;;;;;;12.81;62.37;101314.59;5041601;28;20041;-81
2022/04/05 03:33:53;;;;;;;6.22;4.90;;;;;;;12.87;62.32;101337.63;5050282;28;20406;-80
2022/04/05 03:36:19;;;;;;;8.55;5.60;;;;;;;12.84;62.29;101338.34;5051162;28;20025;-81
2022/04/05 03:38:44;;;;;;;7.75;5.25;;;;;;;12.84;62.50;101332.19;5043049;28;20162;-81
2022/04/05 03:41:10;;;;;;;6.60;5.20;;;;;;;12.70;62.74;101312.22;5045566;28;20021;-81
2022/04/05 03:43:36;;;;;;;6.60;5.00;;;;;;;12.79;62.24;101341.56;5049816;28;20107;-81
2022/04/05 03:46:02;;;;;;;6.40;5.10;;;;;;;12.81;62.53;101342.53;5037148;28;20116;-81
2022/04/05 03:48:27;;;;;;;6.85;5.20;;;;;;;12.80;62.62;101341.63;5051071;28;20111;-81
2022/04/05 03:50:53;;;;;;;6.55;5.13;;;;;;;12.85;62.47;101347.13;5036990;28;20025;-81
2022/04/05 03:53:19;;;;;;;7.40;5.28;;;;;;;12.87;62.14;101349.81;5034810;28;20409;-81
2022/04/05 03:55:44;;;;;;;6.55;5.20;;;;;;;12.83;62.22;101349.66;5031236;28;20512;-81
2022/04/05 03:58:12;;;;;;;7.50;5.55;;;;;;;12.75;62.62;101334.34;5049466;28;20036;-81
2022/04/05 04:00:38;;;;;;;6.60;4.95;;;;;;;12.78;62.18;101338.03;5036668;28;20080;-81
2022/04/05 04:03:04;;;;;;;6.22;4.95;;;;;;;12.83;62.10;101343.53;5043297;28;20036;-81
2022/04/05 04:05:29;;;;;;;7.10;5.22;;;;;;;12.81;62.38;101351.28;5051012;28;20104;-81
2022/04/05 04:07:55;;;;;;;6.97;5.20;;;;;;;12.83;62.11;101349.66;5017159;28;20120;-81
2022/04/05 04:10:21;;;;;;;6.95;5.40;;;;;;;12.80;62.13;101349.47;5033251;28;20665;-81
2022/04/05 04:12:46;;;;;;;6.25;5.32;;;;;;;12.78;62.15;101356.38;5050569;28;20041;-81
2022/04/05 04:15:12;;;;;;;7.78;5.78;;;;;;;12.79;62.29;101363.41;5050639;28;20025;-81
2022/04/05 04:17:38;;;;;;;6.38;5.10;;;;;;;12.77;62.28;101354.56;5038878;28;20557;-81
2022/04/05 04:20:05;;;;;;;6.63;5.03;;;;;;;12.77;62.44;101357.19;5030543;28;20426;-81
2022/04/05 04:22:31;;;;;;;5.88;4.68;;;;;;;12.77;62.24;101364.16;5037153;28;20033;-81
2022/04/05 04:24:57;;;;;;;6.18;4.97;;;;;;;12.74;62.32;101357.03;5036347;28;20037;-81
2022/04/05 04:27:24;;;;;;;6.13;4.70;;;;;;;12.76;62.43;101359.72;5042285;28;20094;-81
2022/04/05 04:29:50;;;;;;;6.05;5.00;;;;;;;12.62;62.33;101333.66;5035124;28;20030;-80
2022/04/05 04:32:16;;;;;;;7.50;5.65;;;;;;;12.67;62.56;101339.16;5030562;28;20033;-81
2022/04/05 04:34:41;;;;;;;7.43;5.18;;;;;;;12.69;62.53;101350.63;5019755;28;20037;-81
2022/04/05 04:37:07;;;;;;;6.65;5.30;;;;;;;12.76;62.26;101341.38;5040200;28;20025;-81
2022/04/05 04:39:33;;;;;;;6.40;4.95;;;;;;;12.63;62.47;101331.94;5044183;28;20513;-81
2022/04/05 04:41:59;;;;;;;8.40;5.40;;;;;;;12.69;62.49;101339.25;5032870;28;20029;-80
2022/04/05 04:44:25;;;;;;;7.22;5.22;;;;;;;12.72;62.58;101350.81;5031790;28;20029;-80
2022/04/05 04:46:51;;;;;;;7.75;5.13;;;;;;;12.70;62.23;101344.56;5028087;28;20115;-81
2022/04/05 04:49:17;;;;;;;7.20;5.22;;;;;;;12.73;62.42;101351.69;5050007;28;20029;-80
2022/04/05 04:51:43;;;;;;;8.20;5.70;;;;;;;12.70;62.55;101347.19;5044493;28;20036;-80
2022/04/05 04:54:08;;;;;;;6.47;5.30;;;;;;;12.67;62.63;101335.63;5031489;28;20072;-81
2022/04/05 04:56:34;;;;;;;8.38;5.30;;;;;;;12.69;62.47;101347.09;5036736;28;20111;-81
2022/04/05 04:59:00;;;;;;;7.40;5.57;;;;;;;12.68;62.59;101345.28;5049151;28;20020;-81
2022/04/05 05:01:26;;;;;;;6.85;5.80;;;;;;;12.68;62.79;101345.28;5025377;28;20029;-81
2022/04/05 05:03:51;;;;;;;9.40;5.88;;;;;;;12.62;62.33;101336.28;5040949;28;20025;-81
2022/04/05 05:06:17;;;;;;;7.93;5.25;;;;;;;12.70;62.25;101348.91;5039064;28;20081;-82
2022/04/05 05:08:43;;;;;;;8.48;5.43;;;;;;;12.67;62.39;101347.00;5041580;28;20029;-82
2022/04/05 05:11:10;;;;;;;8.90;5.70;;;;;;;12.66;62.60;101339.06;5013598;28;20037;-82
2022/04/05 05:13:35;;;;;;;8.90;5.47;;;;;;;12.57;62.70;101336.84;5029250;28;20050;-82
2022/04/05 05:16:01;;;;;;;7.43;5.95;;;;;;;12.66;62.91;101344.31;5033189;28;20041;-82
2022/04/05 05:18:27;;;;;;;7.15;5.78;;;;;;;12.68;62.88;101347.91;5047898;28;20406;-81
2022/04/05 05:20:52;;;;;;;8.60;5.95;;;;;;;12.64;62.59;101344.25;5044159;28;20473;-81
2022/04/05 05:23:18;;;;;;;7.05;5.78;;;;;;;12.20;62.62;101270.25;5034723;28;20469;-82
2022/04/05 05:25:43;;;;;;;7.93;6.03;;;;;;;12.59;62.49;101332.59;5041038;28;20025;-82
2022/04/05 05:28:09;;;;;;;7.15;5.60;;;;;;;12.65;62.55;101347.75;5036641;28;20333;-82
2022/04/05 05:30:35;;;;;;;6.60;5.22;;;;;;;12.19;62.41;101281.53;5054531;28;20025;-83
2022/04/05 05:33:00;;;;;;;8.35;5.55;;;;;;;12.54;62.77;101334.97;5054368;28;20029;-82
2022/04/05 05:35:26;;;;;;;9.45;6.10;;;;;;;12.64;62.59;101352.09;5054310;28;20032;-83
2022/04/05 05:37:52;;;;;;;6.32;5.25;;;;;;;12.63;62.79;101345.03;5030162;28;20395;-83
2022/04/05 05:40:18;;;;;;;7.22;5.43;;;;;;;12.64;62.44;101344.25;5034153;28;20044;-84
2022/04/05 05:42:53;;;;;;;;;;;;;;;12.65;62.78;101350.38;5016875;28;20061;-83
2022/04/05 05:45:19;;;;;;;7.05;5.65;;;;;;;12.59;62.89;101336.13;5034314;28;19959;-81
2022/04/05 05:47:46;;;;;;;8.10;5.40;;;;;;;12.60;62.73;101337.91;5034398;28;20044;-81
2022/04/05 05:50:12;;;;;;;8.25;5.68;;;;;;;12.58;62.71;101330.81;5034114;28;20022;-83
2022/04/05 05:52:40;;;;;;;7.70;5.93;;;;;;;12.57;62.69;101337.78;5016123;28;20124;-81
2022/04/05 05:55:07;;;;;;;7.68;5.63;;;;;;;12.53;63.00;101335.78;5014598;28;20022;-83
2022/04/05 05:57:34;;;;;;;9.85;6.15;;;;;;;12.55;62.52;101341.09;5014671;28;20029;-82
2022/04/05 05:59:59;;;;;;;7.68;5.95;;;;;;;12.40;63.02;101310.66;5040629;28;20021;-83
2022/04/05 06:02:25;;;;;;;8.65;5.85;;;;;;;12.50;62.88;101333.00;5032193;28;20095;-83
2022/04/05 06:04:50;;;;;;;8.77;5.60;;;;;;;12.51;63.01;101336.50;5026279;28;20025;-83
2022/04/05 06:07:16;;;;;;;8.90;5.82;;;;;;;12.52;62.78;101315.63;5032073;28;20609;-83
2022/04/05 06:09:42;;;;;;;7.68;5.35;;;;;;;12.53;62.68;101327.94;5040827;28;20126;-83
2022/04/05 06:12:08;;;;;;;8.05;6.05;;;;;;;12.49;62.96;101317.19;5016680;28;20037;-83
2022/04/05 06:14:33;;;;;;;8.45;6.03;;;;;;;12.57;62.94;101344.69;5015913;28;20045;-83
2022/04/05 06:16:59;;;;;;;9.35;5.68;;;;;;;12.55;62.68;101338.47;5024405;28;20028;-83
2022/04/05 06:19:25;;;;;;;10.02;5.97;;;;;;;12.45;63.17;101326.59;5053726;28;20056;-83
2022/04/05 06:21:50;;;;;;;7.18;5.68;;;;;;;12.54;62.93;101348.06;5053589;28;20021;-83
2022/04/05 06:24:16;;;;;;;8.85;5.75;;;;;;;12.55;63.08;101338.47;5053672;28;20044;-83
2022/04/05 06:26:42;;;;;;;11.48;6.15;;;;;;;12.49;63.20;101335.50;5053489;28;20567;-83
2022/04/05 06:29:08;;;;;;;9.20;6.28;;;;;;;12.55;63.04;101339.41;5045074;28;20029;-82
2022/04/05 06:31:33;;;;;;;10.50;6.13;;;;;;;12.55;63.01;101339.41;5046127;28;20033;-83
2022/04/05 06:34:02;;;;;;;7.80;5.72;;;;;;;12.27;63.10;101288.91;5014659;28;20120;-84
2022/04/05 06:36:29;;;;;;;8.05;5.47;;;;;;;12.42;63.24;101324.72;5016207;28;20073;-84
2022/04/05 06:38:55;;;;;;;7.50;5.53;;;;;;;12.40;63.41;101322.81;5043350;28;20036;-84
2022/04/05 06:41:21;;;;;;;10.35;5.90;;;;;;;12.17;63.04;101291.03;5016097;28;20482;-84
2022/04/05 06:43:47;;;;;;;8.40;5.93;;;;;;;12.29;63.36;101303.88;5020050;28;20091;-83
2022/04/05 06:46:14;;;;;;;9.45;6.03;;;;;;;12.30;63.33;101303.09;5015285;28;20029;-84
2022/04/05 06:48:40;;;;;;;7.47;6.05;;;;;;;12.44;62.95;101327.41;5015769;28;20033;-83
2022/04/05 06:51:06;;;;;;;8.48;5.85;;;;;;;12.55;62.94;101338.47;5024371;28;20063;-83
2022/04/05 06:53:32;;;;;;;7.32;5.63;;;;;;;12.38;63.15;101316.59;5025307;28;20064;-83
2022/04/05 06:55:59;;;;;;;9.77;6.32;;;;;;;12.57;62.79;101345.63;5037542;28;20498;-83
2022/04/05 06:58:26;;;;;;;7.82;5.75;;;;;;;12.52;62.95;101343.56;5027286;28;20064;-82
2022/04/05 07:00:51;;;;;;;9.52;6.10;;;;;;;12.17;62.91;101271.78;5036217;28;20053;-83
2022/04/05 07:03:17;;;;;;;8.13;5.80;;;;;;;12.43;63.27;101333.47;5040632;28;20040;-83
2022/04/05 07:05:43;;;;;;;7.78;5.78;;;;;;;11.99;63.59;101271.66;5052435;28;20042;-83
2022/04/05 07:08:10;;;;;;;8.68;5.43;;;;;;;12.41;63.27;101345.59;5034751;28;20037;-82
2022/04/05 07:10:37;;;;;;;9.32;5.72;;;;;;;12.29;63.67;101327.47;5052740;28;20024;-83
2022/04/05 07:13:03;;;;;;;7.93;5.85;;;;;;;12.40;63.75;101347.31;5052618;28;20111;-82
2022/04/05 07:15:29;;;;;;;;;;;;;;;12.37;63.81;101346.22;5033731;28;20025;-82
2022/04/05 07:17:54;;;;;;;8.65;6.18;;;;;;;12.36;63.88;101352.25;5023136;28;19966;-82
2022/04/05 07:20:20;;;;;;;7.25;5.88;;;;;;;12.39;63.47;101353.34;5017876;28;20049;-82
2022/04/05 07:22:48;;;;;;;9.48;6.10;;;;;;;12.35;63.69;101355.72;5041169;28;20062;-82
2022/04/05 07:25:19;;;;;;;7.88;5.57;;;;;;;12.35;63.73;101354.00;5029935;28;20037;-82
2022/04/05 07:27:45;;;;;;;8.07;5.82;;;;;;;12.32;63.90;101348.59;5039608;28;20083;-82
2022/04/05 07:30:12;;;;;;;7.18;5.30;;;;;;;12.35;63.96;101356.63;5032408;28;20029;-82
2022/04/05 07:32:39;;;;;;;7.43;5.75;;;;;;;12.41;63.80;101353.44;5051532;28;20056;-82
2022/04/05 07:35:05;;;;;;;7.28;5.65;;;;;;;12.29;63.38;101318.72;5052151;28;20378;-82
2022/04/05 07:37:30;;;;;;;8.85;6.05;;;;;;;12.42;63.63;101350.00;5052090;28;20031;-82
2022/04/05 07:39:58;;;;;;;9.13;5.80;;;;;;;12.36;63.65;101347.03;5052150;28;20037;-82
2022/04/05 07:42:24;;;;;;;9.70;5.85;;;;;;;12.35;64.02;101348.75;5034456;28;20103;-83
2022/04/05 07:44:50;;;;;;;9.20;6.53;;;;;;;12.36;63.85;101341.78;5032145;28;20029;-83
2022/04/05 07:47:16;;;;;;;9.43;5.60;;;;;;;12.35;63.96;101346.13;5014400;28;20036;-83
2022/04/05 07:49:41;;;;;;;8.55;6.13;;;;;;;12.41;64.06;101345.59;5031794;28;20618;-82
2022/04/05 07:52:07;;;;;;;7.80;5.72;;;;;;;12.32;64.01;101334.56;5014343;28;20438;-82
2022/04/05 07:54:33;;;;;;;8.05;6.10;;;;;;;12.30;64.10;101331.91;4997859;28;20064;-82
2022/04/05 07:57:00;;;;;;;7.60;5.70;;;;;;;12.20;63.84;101304.28;5031911;28;20069;-82
2022/04/05 07:59:26;;;;;;;7.90;6.28;;;;;;;12.43;64.04;101338.72;5031885;28;20026;-82
2022/04/05 08:01:55;;;;;;;8.57;6.18;;;;;;;12.18;64.11;101300.66;5031887;28;20112;-83
2022/04/05 08:04:20;;;;;;;7.80;6.07;;;;;;;12.22;63.89;101309.63;5041789;28;20037;-83
2022/04/05 08:06:46;;;;;;;8.43;6.28;;;;;;;12.29;63.99;101313.47;5033527;28;20030;-83
2022/04/05 08:09:11;;;;;;;7.25;6.15;;;;;;;12.37;63.87;101322.66;5031726;28;20384;-82
2022/04/05 08:11:37;;;;;;;9.43;6.57;;;;;;;12.34;64.02;101319.84;5035025;28;20029;-83
2022/04/05 08:14:03;;;;;;;8.85;6.30;;;;;;;12.31;64.11;101311.84;5016060;28;20025;-83
2022/04/05 08:16:28;;;;;;;8.32;5.85;;;;;;;12.39;63.91;101321.03;5029105;28;20090;-84
2022/04/05 08:18:54;;;;;;;9.43;6.10;;;;;;;12.21;64.27;101289.47;5043270;28;20037;-83
2022/04/05 08:21:20;;;;;;;7.97;6.18;;;;;;;12.36;64.04;101321.75;5040204;28;20137;-82
2022/04/05 08:23:48;;;;;;;7.20;5.82;;;;;;;12.38;64.28;101314.91;5034803;28;20088;-83
2022/04/05 08:26:14;;;;;;;8.25;6.32;;;;;;;12.36;64.03;101295.56;5032614;28;20056;-82
2022/04/05 08:28:39;;;;;;;9.27;6.30;;;;;;;12.29;63.96;101287.28;5028904;28;20494;-83
2022/04/05 08:31:05;;;;;;;7.80;5.93;;;;;;;12.33;64.29;101305.88;5028980;28;20461;-83
2022/04/05 08:33:31;;;;;;;9.10;6.80;;;;;;;12.29;64.34;101285.56;5031173;28;20447;-83
2022/04/05 08:35:57;;;;;;;8.52;6.05;;;;;;;12.29;64.35;101284.66;5015326;28;20047;-82
2022/04/05 08:38:22;;;;;;;9.68;6.10;;;;;;;12.31;64.34;101288.28;5051126;28;20025;-82
2022/04/05 08:40:48;;;;;;;7.63;6.00;;;;;;;12.11;64.43;101254.03;5043705;28;20044;-83
2022/04/05 08:43:13;;;;;;;9.50;6.20;;;;;;;12.21;64.29;101264.22;5049118;28;20025;-82
2022/04/05 08:45:42;;;;;;;8.30;5.78;;;;;;;12.31;64.32;101278.69;5028254;28;20072;-82
2022/04/05 08:48:11;;;;;;;8.68;6.13;;;;;;;12.32;64.34;101285.75;4997215;28;20026;-83
2022/04/05 08:50:37;;;;;;;8.73;6.22;;;;;;;12.10;64.42;101239.13;5030102;28;20116;-83
2022/04/05 08:53:03;;;;;;;8.38;6.35;;;;;;;12.08;64.22;101248.63;5051082;28;20049;-83
2022/04/05 08:55:29;;;;;;;10.48;6.72;;;;;;;12.14;64.38;101251.56;5033639;28;20064;-83
2022/04/05 08:57:58;;;;;;;7.97;6.03;;;;;;;12.18;64.19;101258.78;5033244;28;20391;-82
2022/04/05 09:00:24;;;;;;;9.70;6.47;;;;;;;12.24;64.51;101265.19;5033920;28;20421;-83
2022/04/05 09:02:57;;;;;;;8.73;6.40;;;;;;;12.29;64.76;101272.47;5035026;28;20092;-82
2022/04/05 09:05:31;;;;;;;9.57;6.70;;;;;;;12.27;64.50;101267.97;5033863;28;20092;-83
2022/04/05 09:08:16;;;;;;;8.82;6.32;;;;;;;12.33;64.32;101273.53;5033850;28;20022;-83
2022/04/05 09:10:47;;;;;;;7.70;6.45;;;;;;;12.19;64.49;101250.13;5033736;28;20036;-83
2022/04/05 09:13:16;;;;;;;9.80;6.78;;;;;;;12.30;64.60;101266.44;5033662;28;20046;-83
2022/04/05 09:15:42;;;;;;;8.45;6.53;;;;;;;12.22;64.48;101246.78;5033648;28;20025;-83
2022/04/05 09:18:08;;;;;;;9.60;6.60;;;;;;;12.12;64.25;101231.38;5018116;28;20021;-83
2022/04/05 09:20:48;;;;;;;8.80;6.35;;;;;;;12.32;64.59;101258.63;5014723;28;20423;-83
2022/04/05 09:23:38;;;;;;;9.63;6.20;;;;;;;12.18;64.56;101236.94;5026329;28;20164;-83
2022/04/05 09:26:09;;;;;;;10.23;6.50;;;;;;;12.32;64.67;101253.41;5034747;28;20083;-83
2022/04/05 09:28:43;;;;;;;10.43;6.57;;;;;;;12.30;64.83;101247.19;5025062;28;20061;-83
2022/04/05 09:31:14;;;;;;;9.70;6.57;;;;;;;12.30;64.87;101245.47;5025285;28;20143;-83
2022/04/05 09:34:00;;;;;;;11.13;6.25;;;;;;;12.19;64.70;101229.19;5023403;28;20120;-83
2022/04/05 09:36:35;;;;;;;10.07;6.18;;;;;;;12.32;64.68;101232.44;5029840;28;20030;-83
2022/04/05 09:39:15;;;;;;;10.30;6.88;;;;;;;12.31;64.75;101243.75;5027621;28;20037;-84
2022/04/05 09:41:41;;;;;;;8.32;6.40;;;;;;;12.29;65.03;101237.53;5032439;28;20519;-82
2022/04/05 09:44:06;;;;;;;9.57;6.75;;;;;;;12.30;64.87;101227.16;5013190;28;20030;-82
2022/04/05 09:46:33;;;;;;;8.38;6.60;;;;;;;12.28;64.70;101227.88;5017405;28;20037;-82
2022/04/05 09:49:04;;;;;;;10.38;7.13;;;;;;;12.28;64.84;101228.78;5034323;28;20512;-82
2022/04/05 09:51:35;;;;;;;10.98;7.00;;;;;;;12.28;64.87;101212.19;5031012;28;20029;-82
2022/04/05 09:54:01;;;;;;;10.02;6.97;;;;;;;12.31;64.75;101215.84;5026464;28;20083;-82
2022/04/05 09:56:39;;;;;;;10.75;6.80;;;;;;;12.32;64.91;101216.72;5013326;28;20038;-82
2022/04/05 09:59:19;;;;;;;8.73;6.60;;;;;;;12.31;64.97;101209.72;5021841;28;20022;-82
2022/04/05 10:01:47;;;;;;;9.93;6.00;;;;;;;12.26;64.85;101201.59;5033057;28;20031;-82
2022/04/05 10:04:17;;;;;;;8.93;6.45;;;;;;;12.29;64.77;101200.88;5031955;28;20517;-82
2022/04/05 10:06:47;;;;;;;10.00;6.30;;;;;;;12.34;64.75;101212.47;5032842;28;20102;-82
2022/04/05 10:09:14;;;;;;;11.20;6.65;;;;;;;12.33;64.99;101203.72;5032570;28;20477;-82
2022/04/05 10:11:41;;;;;;;8.90;6.78;;;;;;;12.30;64.90;101195.72;5033821;28;20029;-82
2022/04/05 10:14:09;;;;;;;11.82;6.93;;;;;;;12.21;64.67;101169.94;5032626;28;20033;-82
2022/04/05 10:16:35;;;;;;;9.15;6.60;;;;;;;12.33;64.92;101190.63;5032652;28;20490;-82
2022/04/05 10:19:04;;;;;;;9.60;6.50;;;;;;;12.32;65.08;101182.69;5034636;28;20028;-82
2022/04/05 10:21:31;;;;;;;9.57;7.18;;;;;;;12.34;64.72;101183.66;5032457;28;20036;-83
2022/04/05 10:23:58;;;;;;;8.85;6.53;;;;;;;12.26;64.80;101172.81;5019043;28;20025;-82
2022/04/05 10:26:27;;;;;;;9.02;6.57;;;;;;;12.36;64.77;101185.56;5019183;28;20116;-82
2022/04/05 10:28:56;;;;;;;12.23;7.07;;;;;;;12.34;65.21;101181.06;5035566;28;20033;-82
2022/04/05 10:31:51;;;;;;;9.65;6.25;;;;;;;12.33;64.84;101184.50;5018219;28;20029;-82
2022/04/05 10:34:23;;;;;;;8.68;6.20;;;;;;;12.36;64.93;101180.34;5034238;28;20036;-82
2022/04/05 10:37:16;;;;;;;10.02;7.25;;;;;;;12.39;64.72;101166.50;5051762;28;20468;-82
2022/04/05 10:39:42;;;;;;;10.77;7.00;;;;;;;12.53;64.74;101164.59;5047224;28;20506;-83
2022/04/05 10:42:08;;;;;;;;;;;;;;;12.47;64.54;101159.94;5015512;28;20033;-81
2022/04/05 10:44:35;;;;;;;10.30;6.93;;;;;;;12.42;64.61;101149.25;5032834;28;19994;-82
2022/04/05 10:47:04;;;;;;;9.48;6.63;;;;;;;12.43;64.80;101155.38;5019188;28;20034;-81
2022/04/05 10:49:34;;;;;;;10.02;6.97;;;;;;;12.50;64.42;101159.19;5016131;28;20038;-81
2022/04/05 10:52:18;;;;;;;10.98;6.95;;;;;;;12.55;64.59;101160.34;5034980;28;20033;-82
2022/04/05 10:54:52;;;;;;;8.18;6.22;;;;;;;12.52;64.81;101152.31;5039327;28;20021;-82
2022/04/05 10:57:32;;;;;;;9.00;6.43;;;;;;;12.52;64.70;101153.22;5044326;28;20033;-82
2022/04/05 11:00:20;;;;;;;10.05;6.40;;;;;;;12.64;64.18;101147.72;5015378;28;20104;-82
2022/04/05 11:02:51;;;;;;;;;;;;;;;12.52;64.73;101142.75;5019314;28;20033;-82
2022/04/05 11:05:18;;;;;;;10.25;6.80;;;;;;;12.47;64.92;101132.88;5032616;28;19916;-82
2022/04/05 11:07:59;;;;;;;8.95;6.40;;;;;;;12.47;64.64;101136.38;5046709;28;20021;-81
2022/04/05 11:10:49;;;;;;;9.80;6.85;;;;;;;12.42;64.73;101136.16;5051366;28;20103;-81
2022/04/05 11:13:27;;;;;;;9.68;6.93;;;;;;;12.41;65.04;101120.34;5049098;28;20040;-81
2022/04/05 11:15:54;;;;;;;8.38;6.15;;;;;;;12.42;65.02;101120.44;5033866;28;20040;-82
2022/04/05 11:18:21;;;;;;;8.75;6.30;;;;;;;12.34;64.86;101094.63;5032054;28;20032;-81
2022/04/05 11:20:49;;;;;;;10.10;6.70;;;;;;;12.04;64.87;101032.00;5040639;28;20480;-81
2022/04/05 11:23:17;;;;;;;9.15;6.75;;;;;;;12.46;64.96;101110.09;5051810;28;20024;-82
2022/04/05 11:25:44;;;;;;;10.00;6.72;;;;;;;12.39;65.11;101087.94;5017949;28;20040;-82
2022/04/05 11:28:09;;;;;;;8.65;6.68;;;;;;;12.44;64.72;101096.91;5014492;28;20119;-81